Time;durP1;ratioP1;P1;durP2;ratioP2;P2;SDS_P1;SDS_P2;PMS_P1;PMS_P2;Temp;Humidity;BMP_temperature;BMP_pressure;BME280_temperature;BME280_humidity;BME280_pressure;Samples;Min_cycle;Max_cycle;Signal;HPM_P1;HPM_P2
2022/10/06 00:01:09;;;;;;;0.57;0.22;;;;;;;12.29;92.11;100733.41;5076656;28;20556;-87
2022/10/06 00:03:37;;;;;;;2.20;0.50;;;;;;;12.32;91.45;100724.53;5073653;28;20441;-89
2022/10/06 00:06:03;;;;;;;2.85;0.45;;;;;;;12.39;90.84;100736.84;5090295;28;20032;-87
2022/10/06 00:08:30;;;;;;;2.28;0.60;;;;;;;12.42;90.21;100731.53;5074455;28;20031;-86
2022/10/06 00:10:55;;;;;;;2.17;0.52;;;;;;;12.41;90.41;100738.13;5074765;28;20463;-87
2022/10/06 00:13:23;;;;;;;2.22;0.60;;;;;;;12.40;90.22;100749.38;5074457;28;20036;-87
2022/10/06 00:15:48;;;;;;;1.77;0.88;;;;;;;12.39;90.23;100751.31;5074294;28;20052;-86
2022/10/06 00:18:13;;;;;;;2.45;1.05;;;;;;;12.43;89.96;100751.44;5073789;28;20434;-87
2022/10/06 00:20:42;;;;;;;4.43;0.88;;;;;;;12.60;89.61;100765.81;5073952;28;20033;-86
2022/10/06 00:23:08;;;;;;;1.63;0.50;;;;;;;12.48;89.29;100765.72;5073635;28;20028;-87
2022/10/06 00:25:33;;;;;;;2.65;0.75;;;;;;;12.48;89.63;100776.66;5056135;28;20025;-87
2022/10/06 00:27:58;;;;;;;0.90;0.40;;;;;;;12.50;89.43;100771.66;5073729;28;20036;-88
2022/10/06 00:30:27;;;;;;;3.85;0.60;;;;;;;12.47;89.92;100785.97;5073718;28;20395;-87
2022/10/06 00:32:56;;;;;;;2.08;0.93;;;;;;;12.42;89.65;100783.41;5073434;28;20383;-88
2022/10/06 00:35:24;;;;;;;3.42;1.20;;;;;;;12.43;89.55;100781.47;5073794;28;20478;-87
2022/10/06 00:37:50;;;;;;;2.63;0.75;;;;;;;12.44;89.53;100796.78;5073817;28;20024;-90
2022/10/06 00:40:15;;;;;;;4.60;1.60;;;;;;;12.46;89.59;100787.09;5073985;28;20104;-88
2022/10/06 00:42:52;;;;;;;3.58;0.85;;;;;;;12.45;89.13;100803.84;5073427;28;20044;-89
2022/10/06 00:45:20;;;;;;;;;;;;;;;12.42;89.18;100804.47;5056096;28;20123;-89
2022/10/06 00:47:45;;;;;;;2.95;0.80;;;;;;;12.45;89.52;100809.28;5056011;28;19918;-88
2022/10/06 00:50:13;;;;;;;1.27;0.40;;;;;;;12.45;89.52;100817.50;5073037;28;20107;-88
2022/10/06 00:52:39;;;;;;;2.13;0.98;;;;;;;12.40;89.27;100817.66;5073593;28;20297;-89
2022/10/06 00:55:08;;;;;;;3.10;0.50;;;;;;;12.38;89.19;100822.66;5073900;28;20028;-88
2022/10/06 00:57:36;;;;;;;4.13;0.65;;;;;;;12.42;89.03;100821.66;5073501;28;20037;-90
2022/10/06 01:00:06;;;;;;;2.28;0.80;;;;;;;12.39;89.03;100821.53;5073466;28;20028;-86
2022/10/06 01:02:41;;;;;;;1.48;0.40;;;;;;;12.40;88.62;100825.84;5055552;28;20060;-88
2022/10/06 01:05:10;;;;;;;4.68;1.35;;;;;;;12.41;88.96;100827.44;5073675;28;20028;-90
2022/10/06 01:07:36;;;;;;;1.50;0.50;;;;;;;12.33;88.99;100832.63;5074090;28;20039;-89
2022/10/06 01:10:02;;;;;;;2.28;0.60;;;;;;;12.40;88.65;100834.03;5073426;28;20375;-88
2022/10/06 01:12:28;;;;;;;0.77;0.50;;;;;;;12.30;89.42;100838.75;5073400;28;20032;-85
2022/10/06 01:14:55;;;;;;;3.10;0.60;;;;;;;12.30;89.87;100835.22;5073238;28;20586;-86
2022/10/06 01:17:29;;;;;;;1.60;0.60;;;;;;;12.25;90.69;100838.94;5055560;28;20032;-89
2022/10/06 01:20:00;;;;;;;1.10;0.60;;;;;;;12.22;91.07;100839.59;5073471;28;20062;-89
2022/10/06 01:22:29;;;;;;;2.13;0.70;;;;;;;12.16;91.43;100849.09;5055276;28;20039;-88
2022/10/06 01:24:56;;;;;;;2.53;0.82;;;;;;;12.15;91.83;100849.44;5055317;28;20032;-89
2022/10/06 01:27:23;;;;;;;3.88;1.20;;;;;;;12.19;92.24;100855.81;5073318;28;20036;-88
2022/10/06 01:29:53;;;;;;;1.67;0.77;;;;;;;12.23;91.52;100846.66;5073227;28;20119;-90
2022/10/06 01:32:20;;;;;;;4.05;0.95;;;;;;;12.23;92.00;100854.03;5073649;28;20525;-86
2022/10/06 01:34:46;;;;;;;6.07;1.05;;;;;;;12.14;92.32;100858.75;5054616;28;20036;-90
2022/10/06 01:37:11;;;;;;;2.30;0.80;;;;;;;12.16;92.36;100862.75;5055436;28;20448;-87
2022/10/06 01:39:36;;;;;;;3.55;0.70;;;;;;;12.14;91.84;100858.75;5056144;28;20419;-87
2022/10/06 01:42:02;;;;;;;3.03;0.87;;;;;;;12.19;92.20;100867.56;5073795;28;20522;-91
2022/10/06 01:44:27;;;;;;;2.47;0.55;;;;;;;12.15;91.61;100872.06;5055205;28;20282;-88
2022/10/06 01:46:53;;;;;;;3.92;0.73;;;;;;;12.21;91.02;100881.66;5055678;28;20021;-87
2022/10/06 01:49:18;;;;;;;1.63;0.57;;;;;;;12.23;90.94;100873.16;5074753;28;20098;-90
2022/10/06 01:51:46;;;;;;;3.97;1.50;;;;;;;12.20;90.53;100882.81;5074349;28;20032;-90
2022/10/06 01:54:11;;;;;;;1.50;0.45;;;;;;;12.24;90.11;100881.00;5073774;28;20028;-88
2022/10/06 01:56:37;;;;;;;2.45;0.95;;;;;;;12.26;90.42;100884.25;5075996;28;20029;-87
2022/10/06 01:59:02;;;;;;;5.68;0.88;;;;;;;12.25;90.42;100877.16;5074939;28;20368;-89
2022/10/06 02:01:28;;;;;;;4.63;1.25;;;;;;;12.25;90.15;100884.53;5056108;28;20071;-89
2022/10/06 02:03:53;;;;;;;2.53;0.73;;;;;;;12.25;90.15;100893.53;5077863;28;20048;-90
2022/10/06 02:06:19;;;;;;;2.95;0.68;;;;;;;12.20;90.67;100896.44;5060131;28;20469;-90
2022/10/06 02:08:45;;;;;;;2.70;1.20;;;;;;;12.20;90.82;100899.19;5060487;28;20459;-90
2022/10/06 02:11:11;;;;;;;5.00;0.90;;;;;;;12.15;90.70;100907.56;5060259;28;20457;-90
2022/10/06 02:13:37;;;;;;;4.60;0.70;;;;;;;12.11;91.26;100914.81;5077328;28;20033;-89
2022/10/06 02:16:05;;;;;;;;;;;;;;;12.07;91.43;100913.03;5060658;28;20119;-90
2022/10/06 02:18:32;;;;;;;1.80;0.60;;;;;;;12.07;91.25;100913.81;5076830;28;19958;-89
2022/10/06 02:20:57;;;;;;;3.60;0.70;;;;;;;12.01;91.67;100929.59;5058780;28;20028;-89
2022/10/06 02:23:23;;;;;;;2.45;0.90;;;;;;;12.02;91.29;100933.13;5059253;28;20039;-87
2022/10/06 02:25:48;;;;;;;3.47;1.00;;;;;;;12.00;91.35;100927.97;5058945;28;20498;-87
2022/10/06 02:28:15;;;;;;;4.35;1.23;;;;;;;12.01;91.19;100931.50;5058936;28;20041;-88
2022/10/06 02:30:41;;;;;;;3.92;1.42;;;;;;;12.03;90.95;100934.72;5076416;28;20040;-85
2022/10/06 02:33:06;;;;;;;2.20;1.02;;;;;;;12.01;90.64;100931.50;5079623;28;20033;-86
2022/10/06 02:35:32;;;;;;;5.85;1.00;;;;;;;11.94;90.97;100932.03;5076080;28;20032;-89
2022/10/06 02:38:00;;;;;;;4.35;1.25;;;;;;;11.96;91.03;100935.22;5075877;28;20093;-87
2022/10/06 02:40:25;;;;;;;3.83;0.90;;;;;;;11.95;90.55;100938.28;5057956;28;20036;-87
2022/10/06 02:42:51;;;;;;;2.80;0.63;;;;;;;11.88;90.40;100933.28;5075835;28;20096;-85
2022/10/06 02:45:16;;;;;;;4.77;0.90;;;;;;;11.89;90.91;100948.53;5076359;28;20310;-89
2022/10/06 02:47:42;;;;;;;3.10;1.00;;;;;;;11.90;90.89;100960.25;5076676;28;20036;-89
2022/10/06 02:50:07;;;;;;;1.98;0.70;;;;;;;11.92;90.71;100963.47;5058516;28;20064;-89
2022/10/06 02:52:35;;;;;;;4.00;0.63;;;;;;;11.93;90.85;100962.38;5058320;28;20032;-87
2022/10/06 02:55:03;;;;;;;5.95;1.52;;;;;;;11.91;90.25;100964.59;5057745;28;20071;-87
2022/10/06 02:57:28;;;;;;;3.03;0.75;;;;;;;11.92;90.47;100971.66;5075959;28;20074;-87
2022/10/06 02:59:54;;;;;;;4.65;1.55;;;;;;;11.92;90.21;100977.91;5075893;28;20442;-89
2022/10/06 03:02:19;;;;;;;5.07;1.30;;;;;;;11.88;90.18;100976.16;5075962;28;20048;-88
2022/10/06 03:04:45;;;;;;;5.22;1.00;;;;;;;11.90;90.39;100987.53;5075883;28;20028;-88
2022/10/06 03:07:10;;;;;;;7.78;1.10;;;;;;;11.89;90.55;100988.69;5057622;28;20082;-88
2022/10/06 03:09:35;;;;;;;2.47;0.95;;;;;;;11.83;90.86;100985.31;5075392;28;20032;-88
2022/10/06 03:12:01;;;;;;;6.63;1.25;;;;;;;11.75;91.18;100991.53;5075251;28;20031;-87
2022/10/06 03:14:26;;;;;;;2.17;0.60;;;;;;;11.73;91.48;101002.78;5074590;28;20032;-88
2022/10/06 03:16:53;;;;;;;3.05;0.80;;;;;;;11.77;91.10;101007.59;5057588;28;20032;-88
2022/10/06 03:19:19;;;;;;;4.03;0.80;;;;;;;11.70;91.67;101003.41;5075034;28;20059;-88
2022/10/06 03:21:44;;;;;;;5.43;1.33;;;;;;;11.72;91.06;101014.00;5057339;28;20527;-88
2022/10/06 03:24:10;;;;;;;1.90;0.77;;;;;;;11.66;91.28;101007.13;5074821;28;20078;-89
2022/10/06 03:26:39;;;;;;;3.47;1.02;;;;;;;11.63;91.28;101030.38;5056674;28;20037;-88
2022/10/06 03:29:05;;;;;;;2.85;0.90;;;;;;;11.60;91.48;101033.75;5057485;28;20037;-89
2022/10/06 03:31:31;;;;;;;;;;;;;;;11.62;90.64;101034.22;5077473;28;20060;-91
2022/10/06 03:33:57;;;;;;;4.15;0.93;;;;;;;11.58;91.16;101033.25;5058213;28;19957;-90
2022/10/06 03:36:24;;;;;;;4.45;0.82;;;;;;;11.61;90.76;101042.75;5075830;28;20033;-89
2022/10/06 03:38:50;;;;;;;2.47;0.82;;;;;;;11.65;90.33;101044.50;5057883;28;20036;-90
2022/10/06 03:41:18;;;;;;;5.70;1.30;;;;;;;11.61;90.47;101042.75;5056881;28;20035;-90
2022/10/06 03:43:45;;;;;;;2.97;0.93;;;;;;;11.59;90.45;101056.69;5075495;28;20025;-89
2022/10/06 03:46:14;;;;;;;6.63;0.85;;;;;;;11.56;90.46;101057.31;5057957;28;20031;-89
2022/10/06 03:48:40;;;;;;;4.40;0.88;;;;;;;11.65;89.72;101068.25;5057535;28;20058;-87
2022/10/06 03:51:26;;;;;;;;;;;;;;;11.61;90.01;101070.00;5058986;28;20032;-89
2022/10/06 03:53:52;;;;;;;1.92;0.90;;;;;;;11.58;90.28;101071.44;5074251;28;19963;-87
2022/10/06 03:56:23;;;;;;;;;;;;;;;11.50;90.38;101074.16;5075507;28;20032;-93
2022/10/06 03:58:52;;;;;;;6.32;1.65;;;;;;;11.45;90.72;101084.09;5057412;28;19965;-91
2022/10/06 04:01:20;;;;;;;3.17;0.88;;;;;;;11.44;91.37;101087.94;5077167;28;20522;-92
2022/10/06 04:03:46;;;;;;;2.70;0.70;;;;;;;11.52;90.58;101088.28;5064212;28;20050;-91
2022/10/06 04:06:16;;;;;;;2.35;0.70;;;;;;;11.47;90.45;101097.41;5063837;28;20086;-93
2022/10/06 04:08:43;;;;;;;5.55;1.40;;;;;;;11.44;90.58;101096.13;5076757;28;20111;-88
2022/10/06 04:11:22;;;;;;;6.68;0.75;;;;;;;11.37;91.15;101092.25;5076083;28;20029;-90
2022/10/06 04:13:55;;;;;;;4.80;1.05;;;;;;;11.31;91.09;101107.16;5059347;28;20029;-89
2022/10/06 04:16:26;;;;;;;3.20;0.70;;;;;;;11.35;90.96;101113.56;5058927;28;20024;-92
2022/10/06 04:18:54;;;;;;;5.07;1.17;;;;;;;11.29;91.12;101112.91;5076247;28;20029;-90
2022/10/06 04:21:20;;;;;;;4.03;0.68;;;;;;;11.35;91.08;101108.13;5075870;28;20032;-90
2022/10/06 04:23:45;;;;;;;2.70;0.90;;;;;;;11.27;91.24;101111.63;5075444;28;20073;-88
2022/10/06 04:26:16;;;;;;;2.72;0.73;;;;;;;11.20;91.63;101119.44;5056936;28;20119;-90
2022/10/06 04:28:43;;;;;;;3.30;1.40;;;;;;;11.23;91.51;101124.25;5058937;28;20059;-90
2022/10/06 04:31:18;;;;;;;3.13;1.00;;;;;;;11.19;91.57;101131.47;5077177;28;20047;-90
2022/10/06 04:33:45;;;;;;;3.85;0.90;;;;;;;11.08;91.74;101133.66;5058213;28;20029;-91
2022/10/06 04:36:16;;;;;;;2.72;0.80;;;;;;;11.08;91.88;101134.44;5076766;28;20082;-93
2022/10/06 04:38:42;;;;;;;8.07;1.38;;;;;;;11.16;91.49;101135.63;5077254;28;20399;-90
2022/10/06 04:41:13;;;;;;;4.20;1.33;;;;;;;11.12;91.51;101145.56;5058606;28;20032;-89
2022/10/06 04:43:39;;;;;;;3.42;0.88;;;;;;;11.09;91.42;101149.72;5075513;28;20040;-92
2022/10/06 04:46:08;;;;;;;6.40;1.05;;;;;;;11.18;91.08;101151.66;5062131;28;20036;-90
2022/10/06 04:48:34;;;;;;;6.55;0.80;;;;;;;11.14;90.73;101155.03;5062315;28;20040;-92
2022/10/06 04:51:02;;;;;;;3.03;0.80;;;;;;;11.06;90.80;101157.69;5081171;28;20051;-91
2022/10/06 04:53:29;;;;;;;5.47;0.80;;;;;;;11.04;90.77;101162.66;5063714;28;20098;-92
2022/10/06 04:56:03;;;;;;;3.05;1.13;;;;;;;10.97;90.79;101165.03;5062438;28;20101;-92
2022/10/06 04:58:32;;;;;;;5.25;1.23;;;;;;;11.00;90.66;101167.94;5080189;28;20102;-93
2022/10/06 05:00:58;;;;;;;1.85;0.60;;;;;;;10.97;90.74;101173.19;5079088;28;20028;-92
2022/10/06 05:03:23;;;;;;;3.35;0.82;;;;;;;10.92;91.28;101176.88;5079600;28;20040;-92
2022/10/06 05:05:49;;;;;;;5.22;0.80;;;;;;;10.91;90.92;101182.59;5079742;28;20024;-91
2022/10/06 05:08:15;;;;;;;4.20;0.95;;;;;;;10.89;91.34;101182.13;5062078;28;20040;-91
2022/10/06 05:10:40;;;;;;;3.92;0.82;;;;;;;10.93;90.71;101186.66;5062653;28;20024;-90
2022/10/06 05:13:10;;;;;;;3.95;0.75;;;;;;;11.06;89.58;101193.13;5063453;28;20037;-91
2022/10/06 05:15:35;;;;;;;4.00;0.80;;;;;;;10.98;89.89;101197.41;5081113;28;20107;-92
2022/10/06 05:18:01;;;;;;;3.03;0.80;;;;;;;10.93;90.04;101203.00;5082906;28;20039;-93
2022/10/06 05:20:26;;;;;;;6.32;1.58;;;;;;;10.85;90.25;101215.44;5065430;28;20032;-92
2022/10/06 05:22:52;;;;;;;4.05;1.00;;;;;;;10.93;90.58;101218.53;5081074;28;20063;-93
2022/10/06 05:25:17;;;;;;;7.90;3.40;;;;;;;10.94;89.97;101231.06;5062597;28;20032;-92
2022/10/06 05:27:42;;;;;;;6.22;1.88;;;;;;;10.97;89.42;101223.06;5087380;28;20028;-91
2022/10/06 05:30:08;;;;;;;5.35;1.13;;;;;;;10.83;90.41;101220.41;5092681;28;20027;-90
2022/10/06 05:32:34;;;;;;;4.10;1.35;;;;;;;10.80;90.39;101234.63;5078947;28;20294;-92
2022/10/06 05:34:59;;;;;;;5.07;1.25;;;;;;;10.74;90.81;101232.31;5078820;28;20032;-93
2022/10/06 05:37:25;;;;;;;10.40;2.85;;;;;;;10.71;90.83;101238.41;5099541;28;20032;-91
2022/10/06 05:39:50;;;;;;;3.50;1.08;;;;;;;10.64;91.13;101235.31;5082453;28;20025;-90
2022/10/06 05:42:15;;;;;;;4.93;1.37;;;;;;;10.68;90.96;101248.00;5082123;28;20020;-92
2022/10/06 05:44:41;;;;;;;4.95;1.33;;;;;;;10.57;91.32;101248.53;5101015;28;20286;-91
2022/10/06 05:47:07;;;;;;;6.88;1.38;;;;;;;10.69;90.60;101248.78;5086687;28;20040;-91
2022/10/06 05:49:32;;;;;;;4.80;1.10;;;;;;;10.60;91.03;101256.09;5082486;28;20032;-90
2022/10/06 05:51:58;;;;;;;5.20;1.33;;;;;;;10.58;90.73;101261.03;5066777;28;20147;-90
2022/10/06 05:54:23;;;;;;;6.27;1.43;;;;;;;10.50;91.10;101268.81;5070680;28;20068;-89
2022/10/06 05:56:49;;;;;;;5.82;1.70;;;;;;;10.42;91.30;101269.56;5064631;28;20357;-91
2022/10/06 05:59:14;;;;;;;8.27;1.77;;;;;;;10.37;91.88;101264.19;5061393;28;20115;-91
2022/10/06 06:01:41;;;;;;;4.75;1.00;;;;;;;10.36;92.00;101273.47;5078328;28;20036;-91
2022/10/06 06:04:11;;;;;;;5.45;1.30;;;;;;;10.34;91.67;101283.06;5079115;28;20493;-91
2022/10/06 06:06:42;;;;;;;6.60;1.33;;;;;;;10.30;92.09;101282.88;5078064;28;20028;-92
2022/10/06 06:09:16;;;;;;;6.90;1.35;;;;;;;10.28;92.18;101296.00;5077516;28;20468;-91
2022/10/06 06:11:44;;;;;;;4.00;1.10;;;;;;;10.36;92.46;101291.72;5078224;28;20016;-91
2022/10/06 06:14:15;;;;;;;4.47;1.17;;;;;;;10.29;91.99;101300.31;5077764;28;20085;-92
2022/10/06 06:16:41;;;;;;;5.35;1.48;;;;;;;10.28;92.19;101301.44;5077444;28;20077;-91
2022/10/06 06:19:08;;;;;;;;;;;;;;;10.31;92.16;101303.53;5060258;28;20036;-91
2022/10/06 06:21:33;;;;;;;7.33;1.40;;;;;;;10.35;92.37;101307.25;5078214;28;19916;-90
2022/10/06 06:23:58;;;;;;;4.93;0.83;;;;;;;10.37;93.19;101298.78;5058665;28;20638;-91
2022/10/06 06:26:30;;;;;;;4.40;0.77;;;;;;;10.35;92.09;101307.25;5059652;28;20313;-91
2022/10/06 06:29:04;;;;;;;8.15;0.93;;;;;;;10.29;92.23;101316.66;5080710;28;20668;-91
2022/10/06 06:31:37;;;;;;;3.40;1.02;;;;;;;10.25;92.80;101315.66;5066671;28;20035;-92
2022/10/06 06:34:05;;;;;;;2.83;0.93;;;;;;;10.30;92.36;101320.19;5079587;28;20033;-91
2022/10/06 06:36:35;;;;;;;3.47;1.45;;;;;;;10.33;91.86;101325.81;5059334;28;20115;-91
2022/10/06 06:39:04;;;;;;;9.77;1.60;;;;;;;10.27;92.47;101337.94;5062488;28;20086;-92
2022/10/06 06:41:32;;;;;;;9.48;2.78;;;;;;;10.27;92.17;101332.50;5078673;28;20036;-91
2022/10/06 06:44:00;;;;;;;5.15;1.17;;;;;;;10.39;91.90;101335.50;5078247;28;20028;-91
2022/10/06 06:46:30;;;;;;;9.15;2.20;;;;;;;10.42;92.20;101342.28;5078987;28;20515;-93
2022/10/06 06:48:57;;;;;;;5.03;0.98;;;;;;;10.47;91.32;101353.84;5077625;28;20024;-92
2022/10/06 06:51:23;;;;;;;8.13;1.10;;;;;;;10.47;91.34;101348.41;5059892;28;20488;-92
2022/10/06 06:53:50;;;;;;;7.55;1.52;;;;;;;10.63;90.73;101362.50;5059750;28;20100;-91
2022/10/06 06:56:16;;;;;;;3.15;0.90;;;;;;;10.59;90.25;101360.72;5059128;28;20044;-90
2022/10/06 06:58:48;;;;;;;6.45;1.42;;;;;;;10.54;90.36;101365.13;5059354;28;20036;-91
2022/10/06 07:01:16;;;;;;;7.72;1.30;;;;;;;10.56;90.05;101367.53;5058980;28;20472;-89
2022/10/06 07:03:44;;;;;;;7.55;1.50;;;;;;;10.73;89.74;101356.03;5076011;28;20055;-90
2022/10/06 07:06:12;;;;;;;8.43;1.80;;;;;;;10.66;89.76;101367.34;5058736;28;20064;-90
2022/10/06 07:08:41;;;;;;;7.72;1.58;;;;;;;10.64;89.36;101374.22;5058443;28;20418;-91
2022/10/06 07:11:17;;;;;;;8.25;1.25;;;;;;;10.63;89.64;101378.84;5058173;28;20032;-91
2022/10/06 07:13:44;;;;;;;6.32;1.67;;;;;;;10.62;90.11;101377.25;5076369;28;20115;-92
2022/10/06 07:27:08;;;;;;;5.05;0.88;;;;;;;10.78;89.34;101397.59;5075454;28;20075;-90
2022/10/06 07:29:33;;;;;;;4.03;0.80;;;;;;;10.82;88.82;101411.41;5075138;28;20115;-90
2022/10/06 07:31:59;;;;;;;4.40;1.30;;;;;;;10.89;88.77;101414.53;5058880;28;20040;-92
2022/10/06 07:34:25;;;;;;;5.87;1.60;;;;;;;10.87;88.75;101415.94;5074967;28;20032;-93
2022/10/06 07:36:52;;;;;;;4.60;1.33;;;;;;;10.97;88.69;101427.44;5075688;28;20274;-91
2022/10/06 07:39:18;;;;;;;5.63;1.63;;;;;;;10.98;88.40;101422.81;5075067;28;20028;-91
2022/10/06 07:41:44;;;;;;;6.28;1.60;;;;;;;11.00;87.59;101429.56;5075679;28;20024;-93
2022/10/06 07:44:09;;;;;;;3.92;0.88;;;;;;;11.04;87.93;101438.72;5074465;28;20032;-92
2022/10/06 07:46:35;;;;;;;6.18;1.38;;;;;;;11.13;87.74;101433.38;5057355;28;20021;-91
2022/10/06 07:49:00;;;;;;;8.77;1.92;;;;;;;11.21;87.09;101437.28;5057150;28;20033;-92
2022/10/06 07:51:29;;;;;;;6.32;1.85;;;;;;;11.25;87.02;101443.72;5057066;28;20116;-94
2022/10/06 07:53:54;;;;;;;6.10;1.30;;;;;;;11.45;86.40;101446.81;5076646;28;20090;-92
2022/10/06 07:56:20;;;;;;;6.47;1.45;;;;;;;11.45;86.50;101456.94;5057603;28;20476;-92
2022/10/06 07:58:47;;;;;;;5.93;1.48;;;;;;;11.55;85.78;101453.94;5075912;28;20029;-92
2022/10/06 08:01:14;;;;;;;10.25;1.33;;;;;;;11.57;85.39;101459.91;5075692;28;20426;-92
2022/10/06 08:03:41;;;;;;;7.03;1.63;;;;;;;11.60;85.26;101456.56;5058287;28;20566;-92
2022/10/06 08:06:17;;;;;;;7.68;1.83;;;;;;;11.87;85.01;101455.66;5057876;28;20028;-90
2022/10/06 08:08:44;;;;;;;9.48;1.38;;;;;;;11.87;84.24;101472.03;5056776;28;20558;-91
2022/10/06 08:11:13;;;;;;;5.40;1.35;;;;;;;11.92;84.40;101474.63;5075751;28;20115;-90
2022/10/06 08:13:42;;;;;;;10.77;3.58;;;;;;;12.03;84.48;101464.28;5057653;28;20063;-90
2022/10/06 08:16:17;;;;;;;6.28;2.50;;;;;;;11.98;83.57;101461.69;5075371;28;20111;-91
2022/10/06 08:18:52;;;;;;;7.82;1.58;;;;;;;12.12;83.29;101465.16;5073885;28;20025;-90
2022/10/06 08:21:23;;;;;;;2.78;0.77;;;;;;;12.25;82.75;101469.72;5074525;28;20092;-92
2022/10/06 08:23:49;;;;;;;5.15;1.73;;;;;;;12.31;82.99;101476.66;5055967;28;20054;-91
2022/10/06 08:26:16;;;;;;;5.78;1.70;;;;;;;12.46;82.62;101472.72;5057222;28;20032;-91
2022/10/06 08:28:44;;;;;;;7.28;1.38;;;;;;;12.34;81.74;101481.50;5073770;28;20024;-91
2022/10/06 08:31:11;;;;;;;4.78;1.42;;;;;;;12.44;81.65;101474.16;5056945;28;20507;-90
2022/10/06 08:33:41;;;;;;;9.18;1.40;;;;;;;12.56;82.07;101483.38;5056363;28;20024;-94
2022/10/06 08:36:13;;;;;;;3.72;1.50;;;;;;;12.66;81.35;101495.97;5056034;28;20028;-91
2022/10/06 08:38:39;;;;;;;4.93;1.17;;;;;;;12.74;80.63;101491.63;5060836;28;20436;-91
2022/10/06 08:41:23;;;;;;;;;;;;;;;12.59;80.56;101492.84;5077261;28;20032;-93
2022/10/06 08:44:17;;;;;;;6.45;1.50;;;;;;;12.62;80.55;101503.97;5055584;28;19912;-88
2022/10/06 08:46:59;;;;;;;10.93;1.52;;;;;;;12.77;80.30;101500.03;5048140;28;20098;-87
2022/10/06 08:49:32;;;;;;;6.40;1.25;;;;;;;12.74;80.24;101511.56;5073089;28;20052;-89
2022/10/06 08:52:01;;;;;;;7.80;1.20;;;;;;;12.76;80.22;101512.06;5073440;28;20036;-86
2022/10/06 08:54:54;;;;;;;5.22;1.30;;;;;;;12.86;80.02;101510.97;5073415;28;20044;-88
2022/10/06 08:57:29;;;;;;;8.35;1.30;;;;;;;12.96;79.44;101502.50;5055015;28;20039;-88
2022/10/06 08:59:57;;;;;;;6.20;1.25;;;;;;;13.26;79.70;101509.03;5055086;28;20051;-88
2022/10/06 09:02:31;;;;;;;8.10;1.10;;;;;;;13.20;78.30;101504.84;5072744;28;20050;-88
2022/10/06 09:05:00;;;;;;;7.65;1.73;;;;;;;13.38;77.51;101514.69;5073032;28;20032;-91
2022/10/06 09:07:58;;;;;;;11.65;1.90;;;;;;;13.10;78.09;101510.56;5055033;28;20082;-89
2022/10/06 09:10:38;;;;;;;4.70;1.00;;;;;;;13.23;77.55;101517.88;5054641;28;20039;-90
2022/10/06 09:13:19;;;;;;;8.13;2.97;;;;;;;13.31;77.11;101519.84;5073035;28;20033;-90
2022/10/06 09:15:55;;;;;;;5.30;1.30;;;;;;;13.25;76.57;101521.09;5055135;28;20037;-87
2022/10/06 09:18:50;;;;;;;8.18;1.48;;;;;;;13.21;77.29;101534.59;5054697;28;20032;-87
2022/10/06 09:21:18;;;;;;;6.78;1.48;;;;;;;13.40;76.39;101534.31;5054789;28;20029;-89
2022/10/06 09:23:52;;;;;;;11.20;1.20;;;;;;;13.48;76.41;101530.81;5073459;28;20035;-86
2022/10/06 09:26:30;;;;;;;5.93;1.58;;;;;;;13.62;76.14;101546.28;5073058;28;20090;-86
2022/10/06 09:28:56;;;;;;;5.53;1.40;;;;;;;13.80;75.24;101547.91;5072973;28;20032;-87
2022/10/06 09:31:28;;;;;;;7.95;1.25;;;;;;;13.76;74.75;101552.38;5073411;28;20068;-88
2022/10/06 09:34:03;;;;;;;7.68;1.15;;;;;;;13.80;74.49;101545.16;5072947;28;20033;-89
2022/10/06 09:36:31;;;;;;;9.10;1.55;;;;;;;13.83;74.25;101547.25;5055760;28;20033;-89
2022/10/06 09:39:18;;;;;;;6.88;1.10;;;;;;;13.93;74.29;101555.13;5055192;28;20024;-91
2022/10/06 09:41:44;;;;;;;;;;;;;;;13.84;73.15;101559.81;5073890;28;20033;-88
2022/10/06 09:44:26;;;;;;;5.20;1.10;;;;;;;13.91;72.85;101562.88;5072989;28;20337;-88
2022/10/06 09:46:52;;;;;;;2.97;1.10;;;;;;;13.97;73.09;101553.38;5074233;28;20028;-89
2022/10/06 09:49:20;;;;;;;8.50;1.40;;;;;;;14.09;72.15;101558.19;5054900;28;20032;-88
2022/10/06 09:52:14;;;;;;;6.88;1.27;;;;;;;14.19;71.45;101566.09;5055719;28;20028;-88
2022/10/06 09:54:42;;;;;;;4.30;1.13;;;;;;;14.17;71.13;101562.06;5066217;28;20535;-86
2022/10/06 09:57:13;;;;;;;4.75;1.20;;;;;;;14.28;71.60;101568.84;5072587;28;20093;-90
2022/10/06 09:59:44;;;;;;;7.03;1.55;;;;;;;14.37;71.55;101562.19;5054209;28;20063;-88
2022/10/06 10:02:25;;;;;;;7.03;1.02;;;;;;;14.47;70.59;101561.09;5055529;28;20069;-87
2022/10/06 10:04:57;;;;;;;7.10;1.70;;;;;;;14.47;70.80;101563.84;5056462;28;20085;-87
2022/10/06 10:07:25;;;;;;;7.93;1.40;;;;;;;14.46;70.56;101566.91;5055943;28;20032;-89
2022/10/06 10:09:52;;;;;;;7.35;1.63;;;;;;;14.57;68.54;101557.19;5054710;28;20024;-89
2022/10/06 10:12:31;;;;;;;5.38;1.23;;;;;;;14.75;67.81;101562.28;5054715;28;20028;-89
2022/10/06 10:15:24;;;;;;;2.65;0.90;;;;;;;14.67;66.32;101557.66;5055026;28;20158;-88
2022/10/06 10:17:51;;;;;;;4.45;1.42;;;;;;;14.74;64.37;101565.34;5072338;28;20116;-88
2022/10/06 10:20:35;;;;;;;4.85;1.20;;;;;;;14.63;66.16;101570.41;5072792;28;20025;-89
2022/10/06 10:23:19;;;;;;;7.05;1.50;;;;;;;14.72;66.67;101571.16;5055300;28;20460;-87
2022/10/06 10:25:54;;;;;;;7.05;1.40;;;;;;;14.85;66.53;101563.06;5057909;28;20028;-87
2022/10/06 10:28:50;;;;;;;10.30;1.17;;;;;;;14.90;64.50;101569.16;5075954;28;20025;-89
2022/10/06 10:31:53;;;;;;;5.57;1.42;;;;;;;14.82;64.13;101564.53;5075877;28;20413;-88
2022/10/06 10:34:48;;;;;;;4.68;1.27;;;;;;;15.00;64.93;101576.25;5058312;28;20399;-89
2022/10/06 10:37:28;;;;;;;9.25;1.92;;;;;;;15.01;64.82;101564.13;5076145;28;20056;-88
2022/10/06 10:40:02;;;;;;;3.97;1.10;;;;;;;15.00;64.54;101560.59;5058319;28;20040;-89
2022/10/06 10:42:39;;;;;;;13.00;1.55;;;;;;;15.06;64.98;101558.47;5058393;28;20104;-88
2022/10/06 10:45:15;;;;;;;7.57;1.30;;;;;;;15.27;65.13;101567.53;5075705;28;20136;-88
2022/10/06 10:47:45;;;;;;;6.85;1.10;;;;;;;15.34;64.24;101569.78;5057949;28;20029;-88
2022/10/06 10:50:52;;;;;;;5.03;0.88;;;;;;;15.21;63.22;101574.38;5075699;28;20028;-88
2022/10/06 10:53:45;;;;;;;7.57;1.90;;;;;;;15.22;62.55;101569.69;5017449;28;20043;-88
2022/10/06 10:56:15;;;;;;;3.90;0.90;;;;;;;15.09;62.21;101579.75;5075879;28;20147;-87
2022/10/06 10:58:44;;;;;;;4.60;1.30;;;;;;;15.09;62.39;101582.47;5057854;28;20166;-90
2022/10/06 11:01:29;;;;;;;3.83;1.20;;;;;;;15.12;62.72;101583.78;5057930;28;20074;-88
2022/10/06 11:03:57;;;;;;;5.30;1.30;;;;;;;15.16;62.69;101576.50;5062035;28;20142;-91
2022/10/06 11:06:54;;;;;;;4.43;1.35;;;;;;;15.18;62.13;101575.03;5098509;28;20031;-88
2022/10/06 11:09:28;;;;;;;6.95;1.88;;;;;;;15.17;62.38;101587.13;5077711;28;20110;-88
2022/10/06 11:12:04;;;;;;;5.38;1.23;;;;;;;15.09;61.50;101585.22;5096095;28;20035;-87
2022/10/06 11:14:47;;;;;;;5.60;1.23;;;;;;;15.28;61.96;101577.41;5077725;28;20028;-88
2022/10/06 11:17:20;;;;;;;11.20;1.13;;;;;;;15.34;61.54;101578.00;5095833;28;20027;-88
2022/10/06 11:20:07;;;;;;;7.47;1.95;;;;;;;15.56;61.76;101580.47;5077659;28;20089;-88
2022/10/06 11:22:48;;;;;;;2.55;1.15;;;;;;;15.56;61.45;101574.16;5099792;28;20117;-87
2022/10/06 11:25:25;;;;;;;6.95;1.20;;;;;;;15.64;60.71;101582.38;5077391;28;20032;-87
2022/10/06 11:28:13;;;;;;;5.53;1.38;;;;;;;15.52;59.58;101578.72;5095647;28;20028;-90
2022/10/06 11:31:08;;;;;;;5.93;1.55;;;;;;;15.67;60.29;101586.41;5078036;28;20077;-87
2022/10/06 11:34:08;;;;;;;4.35;1.38;;;;;;;15.54;59.21;101582.72;5094358;28;20031;-90
2022/10/06 11:36:39;;;;;;;4.50;1.48;;;;;;;15.50;58.98;101581.00;5052046;28;20044;-88
2022/10/06 11:39:28;;;;;;;4.82;1.20;;;;;;;15.47;58.31;101581.66;5095012;28;20061;-89
2022/10/06 11:42:04;;;;;;;6.45;1.38;;;;;;;15.74;58.43;101581.16;5077917;28;20089;-89
2022/10/06 11:44:45;;;;;;;4.50;1.20;;;;;;;15.88;57.54;101576.22;5098066;28;20024;-89
2022/10/06 11:47:19;;;;;;;8.07;1.30;;;;;;;15.99;56.94;101581.31;5078579;28;20036;-88
2022/10/06 11:49:53;;;;;;;7.75;1.40;;;;;;;15.89;57.25;101577.03;5096068;28;20036;-88
2022/10/06 11:52:18;;;;;;;3.13;1.15;;;;;;;16.05;57.46;101585.47;5096032;28;20408;-89